Terminal Aerodrome Forecast
Issued by NWS

Current Version | Previous Version | Text Only | Print | Product List | Glossary On
Versions: 1 2 3 4 5 6 7 8 9 10 11 12 13 14 15 16 17 18 19 20
811
FTUS46 KPDT 212340
TAFBDN
TAF
KBDN 212340Z 2200/2224 19011G16KT P6SM OVC070
     FM220200 19010KT P6SM OVC070
     FM220500 19009KT P6SM -SHRA SCT035 OVC050
     FM221200 20008KT P6SM OVC070
     FM222100 20008KT P6SM BKN090=

USA.gov is the U.S. government's official web portal to all federal, state and local government web resources and services.